Hardaway, Alabama
Current Conditions -  °F | °C
As of 8:53 PM on Sunday 28 Dec 2014 (Local Time) from KTOI Reporting Station
Haze Haze  
Wind Chill: 64°   Ceiling: 1400
Heat Index: 64°   Visibility: 6mi
Dew Point: 62°   Wind: 5mph
Humidity: 93%   Direction: 50°NE
Pressure: 30.04"   Gusts: NA
Location:  32.29°N, 85.85°W
Report Text: KTOI 290253Z AUTO 05004KT 6SM BR OVC014 18/17 A3004 RMK AO2 SLP169 60002 T01780167 55001
Loading
Personal Weather Stations






























Interactive Weather Map New forecast layout! Learn more

10-Day Weather Forecast

Advertisements
Track Severe Weather on mobile